Terminal Aerodrome Forecast
Issued by NWS Sterling, VA

Current Version | Previous Version | Text Only | Print | Product List | Glossary Off
Versions: 1 2 3 4 5 6 7 8 9 10 11 12 13 14 15 16 17 18 19 20 21 22 23 24 25 26

185
FTUS41 KLWX 191123
TAFDCA
TAF
KDCA 191123Z 1912/2012 32005KT P6SM BKN035
     FM191300 32005KT P6SM SCT035 SCT250
     FM192200 25004KT P6SM SCT035 SCT250
     FM192300 19004KT P6SM FEW250
     FM200900 00000KT P6SM BKN110=

USA.gov is the U.S. government's official web portal to all federal, state and local government web resources and services.